Time;durP1;ratioP1;P1;durP2;ratioP2;P2;SDS_P1;SDS_P2;PMS_P1;PMS_P2;Temp;Humidity;BMP_temperature;BMP_pressure;BME280_temperature;BME280_humidity;BME280_pressure;Samples;Min_cycle;Max_cycle;Signal;HPM_P1;HPM_P2
2022/04/19 00:00:28;;;;;;;1.60;1.50;;;10.90;52.70;11.10;96100.00;;;;5034505;28;20212;-84
2022/04/19 00:02:55;;;;;;;1.47;1.37;;;10.90;52.70;11.10;96091.00;;;;5034643;28;20202;-84
2022/04/19 00:05:22;;;;;;;1.50;1.40;;;10.80;52.70;11.00;96093.00;;;;5034114;28;20201;-84
2022/04/19 00:07:49;;;;;;;1.30;1.23;;;10.80;52.80;11.00;96093.00;;;;5034233;28;20197;-85
2022/04/19 00:10:16;;;;;;;1.50;1.33;;;10.70;52.80;10.90;96082.00;;;;5014679;28;20225;-84
2022/04/19 00:12:43;;;;;;;1.97;1.23;;;10.70;52.90;10.90;96081.00;;;;5014401;28;20226;-85
2022/04/19 00:15:12;;;;;;;1.40;1.30;;;10.70;53.00;10.90;96083.00;;;;5014365;28;20198;-84
2022/04/19 00:17:39;;;;;;;1.70;1.57;;;10.60;53.10;10.80;96071.00;;;;5014276;28;20523;-84
2022/04/19 00:20:08;;;;;;;1.63;1.53;;;10.60;53.20;10.80;96066.00;;;;5013987;28;20225;-84
2022/04/19 00:22:35;;;;;;;1.40;1.30;;;10.50;53.30;10.80;96064.00;;;;5014209;28;20204;-85
2022/04/19 00:25:02;;;;;;;1.63;1.50;;;10.50;53.30;10.70;96066.00;;;;5028057;28;20323;-84
2022/04/19 00:27:29;;;;;;;1.50;1.40;;;10.50;53.40;10.70;96060.00;;;;5033675;28;20197;-83
2022/04/19 00:29:56;;;;;;;2.67;1.30;;;10.50;53.50;10.70;96063.00;;;;5033763;28;20593;-84
2022/04/19 00:32:24;;;;;;;1.27;1.17;;;10.50;53.50;10.70;96059.00;;;;5033629;28;20229;-84
2022/04/19 00:34:52;;;;;;;2.00;1.77;;;10.40;53.60;10.70;96049.00;;;;5033581;28;20200;-85
2022/04/19 00:37:21;;;;;;;1.17;1.07;;;10.40;53.70;10.70;96054.00;;;;5033955;28;20216;-84
2022/04/19 00:39:48;;;;;;;1.23;1.13;;;10.40;53.70;10.60;96048.00;;;;5017920;28;20218;-84
2022/04/19 00:42:16;;;;;;;1.57;1.47;;;10.40;53.80;10.60;96041.00;;;;5013851;28;20208;-84
2022/04/19 00:44:43;;;;;;;1.47;1.33;;;10.40;54.00;10.60;96036.00;;;;5013586;28;20256;-84
2022/04/19 00:47:14;;;;;;;1.50;1.40;;;10.30;54.00;10.60;96042.00;;;;5013801;28;20206;-84
2022/04/19 00:49:43;;;;;;;1.37;1.30;;;10.30;54.00;10.60;96037.00;;;;5013656;28;20218;-84
2022/04/19 00:52:11;;;;;;;1.70;1.60;;;10.40;54.10;10.60;96039.00;;;;5013202;28;20225;-84
2022/04/19 00:54:38;;;;;;;1.40;1.30;;;10.30;54.00;10.60;96029.00;;;;5024272;28;20221;-84
2022/04/19 00:57:06;;;;;;;1.63;1.50;;;10.30;54.00;10.60;96031.00;;;;5033203;28;20659;-84
2022/04/19 00:59:33;;;;;;;1.60;1.30;;;10.40;54.00;10.60;96028.00;;;;5034192;28;20627;-84
2022/04/19 01:02:10;;;;;;;1.60;1.50;;;10.40;54.00;10.70;96028.00;;;;5027281;28;20340;-84
2022/04/19 01:04:37;;;;;;;1.50;1.40;;;10.40;54.10;10.70;96028.00;;;;5026102;28;20201;-84
2022/04/19 01:07:05;;;;;;;1.40;1.27;;;10.40;54.30;10.70;96027.00;;;;5033835;28;20194;-84
2022/04/19 01:09:33;;;;;;;1.50;1.40;;;10.40;54.60;10.70;96024.00;;;;5033646;28;20221;-84
2022/04/19 01:14:48;;;;;;;1.40;1.30;;;10.40;54.60;10.70;96014.00;;;;5032796;28;20200;-84
2022/04/19 01:17:15;;;;;;;1.83;1.43;;;10.40;54.50;10.60;96014.00;;;;5032093;28;20674;-84
2022/04/19 01:19:44;;;;;;;1.57;1.47;;;10.40;54.50;10.60;96012.00;;;;5032644;28;20218;-84
2022/04/19 01:22:13;;;;;;;1.40;1.30;;;10.40;54.60;10.70;96009.00;;;;5032926;28;20205;-84
2022/04/19 01:24:43;;;;;;;2.00;1.57;;;10.50;55.30;10.70;96010.00;;;;5022782;28;20648;-84
2022/04/19 01:27:13;;;;;;;1.40;1.30;;;10.40;54.60;10.70;95994.00;;;;5015026;28;20289;-84
2022/04/19 01:29:40;;;;;;;1.40;1.30;;;10.50;54.70;10.70;96001.00;;;;5013650;28;20782;-84
2022/04/19 01:32:09;;;;;;;2.50;1.33;;;10.50;54.90;10.70;96002.00;;;;5012878;28;20217;-84
2022/04/19 01:34:36;;;;;;;1.03;1.03;;;10.50;54.90;10.70;96003.00;;;;4995432;28;20206;-84
2022/04/19 01:37:03;;;;;;;4.10;1.50;;;10.50;54.90;10.70;96000.00;;;;5012718;28;20202;-84
2022/04/19 01:42:16;;;;;;;1.53;1.10;;;10.50;54.70;10.60;95999.00;;;;5013006;28;20213;-84
2022/04/19 01:44:43;;;;;;;1.37;1.27;;;10.40;54.70;10.60;96001.00;;;;5012561;28;20202;-83
2022/04/19 01:47:10;;;;;;;1.30;1.20;;;10.40;54.90;10.60;96004.00;;;;5012888;28;20202;-84
2022/04/19 01:49:38;;;;;;;1.30;1.30;;;10.40;55.10;10.60;96003.00;;;;5012626;28;20226;-84
2022/04/19 01:52:08;;;;;;;1.40;1.30;;;10.40;55.20;10.60;96000.00;;;;5012939;28;20228;-84
2022/04/19 01:54:36;;;;;;;1.33;1.23;;;10.40;55.20;10.60;96004.00;;;;5022883;28;20300;-84
2022/04/19 01:57:04;;;;;;;1.53;1.30;;;10.40;55.40;10.60;96001.00;;;;5032360;28;20552;-84
2022/04/19 01:59:31;;;;;;;1.47;1.37;;;10.30;55.40;10.60;96002.00;;;;5031981;28;20578;-84
2022/04/19 02:01:57;;;;;;;1.87;1.40;;;10.30;55.60;10.60;95994.00;;;;5030823;28;20563;-84
2022/04/19 02:04:24;;;;;;;1.47;1.37;;;10.40;55.80;10.60;95996.00;;;;5031470;28;20567;-84
2022/04/19 02:06:51;;;;;;;1.77;1.67;;;10.30;55.70;10.60;96001.00;;;;5032127;28;20203;-84
2022/04/19 02:09:18;;;;;;;2.57;1.80;;;10.30;55.80;10.60;95995.00;;;;5020480;28;20202;-83
2022/04/19 02:11:47;;;;;;;1.50;1.40;;;10.30;55.90;10.60;96004.00;;;;5012935;28;20198;-84
2022/04/19 02:14:14;;;;;;;1.70;1.60;;;10.30;56.10;10.60;95995.00;;;;5012191;28;20217;-84
2022/04/19 02:16:41;;;;;;;2.40;1.77;;;10.30;56.10;10.60;95984.00;;;;5012155;28;20691;-83
2022/04/19 02:19:08;;;;;;;2.10;1.90;;;10.30;56.30;10.60;95988.00;;;;5012497;28;20202;-84
2022/04/19 02:21:35;;;;;;;1.70;1.40;;;10.30;56.40;10.60;95980.00;;;;5012571;28;20204;-84
2022/04/19 02:24:02;;;;;;;1.70;1.60;;;10.30;56.50;10.60;95976.00;;;;5012606;28;20214;-85
2022/04/19 02:26:29;;;;;;;1.73;1.53;;;10.30;56.50;10.60;95981.00;;;;5012596;28;20555;-84
2022/04/19 02:28:58;;;;;;;2.50;1.40;;;10.30;56.60;10.60;95964.00;;;;5012736;28;20691;-85
2022/04/19 02:31:27;;;;;;;1.97;1.80;;;10.20;56.60;10.60;95961.00;;;;5012217;28;20218;-84
2022/04/19 02:33:56;;;;;;;1.80;1.70;;;10.30;56.70;10.60;95962.00;;;;5012320;28;20276;-84
2022/04/19 02:36:23;;;;;;;1.60;1.50;;;10.30;56.70;10.60;95960.00;;;;5012190;28;20202;-84
2022/04/19 02:38:50;;;;;;;1.50;1.40;;;10.30;57.30;10.60;95965.00;;;;5020515;28;20231;-84
2022/04/19 02:41:17;;;;;;;1.60;1.50;;;10.30;57.30;10.60;95965.00;;;;5032262;28;20213;-84
2022/04/19 02:43:44;;;;;;;1.60;1.50;;;10.30;56.90;10.60;95963.00;;;;5032350;28;20205;-84
2022/04/19 02:46:13;;;;;;;2.27;1.60;;;10.30;56.90;10.60;95958.00;;;;5032277;28;20201;-84
2022/04/19 02:48:40;;;;;;;2.07;1.70;;;10.30;57.50;10.60;95957.00;;;;5032382;28;20610;-84
2022/04/19 02:51:07;;;;;;;2.17;1.97;;;10.40;57.00;10.60;95953.00;;;;5031972;28;20296;-84
2022/04/19 02:53:34;;;;;;;1.93;1.83;;;10.30;57.10;10.60;95960.00;;;;5038155;28;20228;-84
2022/04/19 02:56:03;;;;;;;2.57;1.97;;;10.30;57.10;10.60;95962.00;;;;5040170;28;20201;-84
2022/04/19 02:58:31;;;;;;;1.67;1.57;;;10.30;57.10;10.60;95962.00;;;;5033879;28;20197;-84
2022/04/19 03:00:59;;;;;;;1.70;1.60;;;10.30;57.20;10.60;95956.00;;;;5032229;28;20221;-84
2022/04/19 03:03:30;;;;;;;2.03;1.70;;;10.30;57.10;10.60;95964.00;;;;5032068;28;20205;-84
2022/04/19 03:05:57;;;;;;;1.83;1.63;;;10.30;57.00;10.60;95955.00;;;;5023567;28;20207;-84
2022/04/19 03:08:25;;;;;;;1.93;1.83;;;10.30;57.00;10.60;95950.00;;;;5025579;28;20205;-84
2022/04/19 03:10:52;;;;;;;2.03;1.93;;;10.30;57.10;10.60;95957.00;;;;5010751;28;20222;-83
2022/04/19 03:13:19;;;;;;;1.63;1.53;;;10.30;57.10;10.60;95958.00;;;;5011551;28;20221;-85
2022/04/19 03:15:46;;;;;;;2.07;1.97;;;10.30;57.00;10.60;95952.00;;;;5015172;28;20656;-83
2022/04/19 03:18:14;;;;;;;3.00;2.70;;;10.30;56.90;10.50;95955.00;;;;5017125;28;20201;-84
2022/04/19 03:20:45;;;;;;;3.00;2.77;;;10.30;56.90;10.60;95950.00;;;;5016811;28;20221;-84
2022/04/19 03:28:46;;;;;;;3.43;2.30;;;10.20;56.60;10.40;95961.00;;;;4942528;28;20193;-84
2022/04/19 03:31:14;;;;;;;2.03;1.93;;;10.20;56.50;10.40;95945.00;;;;5015832;28;20240;-84
2022/04/19 03:33:41;;;;;;;2.00;1.90;;;10.20;56.50;10.40;95950.00;;;;5016497;28;20222;-83
2022/04/19 03:36:10;;;;;;;2.33;2.10;;;10.20;56.50;10.30;95953.00;;;;5015681;28;20543;-84
2022/04/19 03:38:37;;;;;;;2.10;1.90;;;10.20;56.60;10.30;95961.00;;;;5015479;28;20202;-84
2022/04/19 03:41:04;;;;;;;1.73;1.63;;;10.10;56.50;10.30;95952.00;;;;5015610;28;20221;-84
2022/04/19 03:43:32;;;;;;;2.43;1.93;;;10.10;56.50;10.20;95949.00;;;;5022071;28;20206;-83
2022/04/19 03:45:59;;;;;;;2.30;2.10;;;10.00;56.50;10.20;95940.00;;;;5017914;28;20297;-85
2022/04/19 03:48:27;;;;;;;1.87;1.77;;;10.00;56.60;10.20;95950.00;;;;5015394;28;20198;-84
2022/04/19 03:50:54;;;;;;;2.00;1.90;;;10.00;56.50;10.20;95954.00;;;;5015270;28;20267;-84
2022/04/19 03:53:24;;;;;;;1.50;1.40;;;10.00;56.60;10.10;95941.00;;;;5014938;28;20583;-84
2022/04/19 03:55:51;;;;;;;1.60;1.50;;;9.90;56.50;10.10;95944.00;;;;5014792;28;20229;-84
2022/04/19 03:58:19;;;;;;;1.60;1.50;;;9.90;56.50;10.00;95954.00;;;;5015077;28;20200;-85
2022/04/19 04:00:46;;;;;;;1.70;1.60;;;9.90;57.00;10.00;95943.00;;;;5016946;28;20220;-84
2022/04/19 04:03:14;;;;;;;2.23;2.03;;;9.80;56.40;9.90;95952.00;;;;5034441;28;20201;-84
2022/04/19 04:05:41;;;;;;;2.10;1.90;;;9.80;56.40;9.90;95942.00;;;;5034855;28;20190;-85
2022/04/19 04:08:08;;;;;;;1.97;1.87;;;9.80;56.50;9.80;95947.00;;;;5032610;28;20289;-84
2022/04/19 04:10:37;;;;;;;2.10;2.00;;;9.70;56.50;9.80;95944.00;;;;5014573;28;20237;-85
2022/04/19 04:13:04;;;;;;;2.03;1.90;;;9.60;56.60;9.80;95954.00;;;;5014680;28;20601;-83
2022/04/19 04:15:31;;;;;;;2.90;2.23;;;9.60;56.70;9.80;95951.00;;;;5014125;28;20241;-84
2022/04/19 04:17:58;;;;;;;2.13;1.67;;;9.60;56.90;9.70;95944.00;;;;5014730;28;20570;-84
2022/04/19 04:20:25;;;;;;;2.30;2.10;;;9.50;56.80;9.70;95940.00;;;;5014565;28;20222;-85
2022/04/19 04:22:52;;;;;;;2.03;1.80;;;9.50;56.90;9.70;95944.00;;;;5014723;28;20205;-83
2022/04/19 04:25:19;;;;;;;2.10;1.90;;;9.50;57.00;9.70;95947.00;;;;5029818;28;20673;-84
2022/04/19 04:27:48;;;;;;;2.93;2.20;;;9.50;57.10;9.60;95940.00;;;;5034235;28;20197;-84
2022/04/19 04:30:15;;;;;;;2.17;2.07;;;9.40;57.20;9.60;95941.00;;;;5033768;28;20228;-84
2022/04/19 04:32:42;;;;;;;2.37;2.10;;;9.40;57.30;9.60;95945.00;;;;5033913;28;20221;-85
2022/04/19 04:35:10;;;;;;;2.23;2.03;;;9.40;57.40;9.60;95947.00;;;;5033889;28;20201;-84
2022/04/19 04:37:37;;;;;;;2.50;2.30;;;9.30;57.40;9.60;95948.00;;;;5035094;28;20220;-84
2022/04/19 04:40:05;;;;;;;2.23;2.03;;;9.40;57.50;9.60;95944.00;;;;5016453;28;20726;-84
2022/04/19 04:42:32;;;;;;;2.57;2.37;;;9.40;57.40;9.60;95937.00;;;;5013658;28;20201;-84
2022/04/19 04:45:00;;;;;;;1.80;1.70;;;9.40;57.40;9.60;95925.00;;;;5013896;28;20198;-83
2022/04/19 04:50:13;;;;;;;1.90;1.80;;;9.30;57.40;9.50;95931.00;;;;5014193;28;20297;-83
2022/04/19 04:52:40;;;;;;;2.10;2.00;;;9.40;57.40;9.50;95926.00;;;;5014233;28;20664;-84
2022/04/19 04:55:09;;;;;;;4.00;2.50;;;9.30;57.40;9.50;95929.00;;;;5013387;28;20224;-84
2022/04/19 04:57:36;;;;;;;2.70;2.07;;;9.30;57.60;9.50;95923.00;;;;5013600;28;20216;-84
2022/04/19 05:00:06;;;;;;;2.87;2.10;;;9.30;57.70;9.50;95930.00;;;;5013580;28;20214;-83
2022/04/19 05:02:33;;;;;;;2.27;2.10;;;9.30;57.80;9.60;95933.00;;;;5013458;28;20608;-84
2022/04/19 05:05:00;;;;;;;2.20;2.10;;;9.30;57.80;9.60;95936.00;;;;5013421;28;20206;-84
2022/04/19 05:07:27;;;;;;;2.47;2.20;;;9.30;57.90;9.60;95934.00;;;;5013392;28;20198;-83
2022/04/19 05:09:57;;;;;;;2.63;2.00;;;9.30;57.90;9.60;95940.00;;;;5029863;28;20227;-84
2022/04/19 05:12:24;;;;;;;2.17;1.83;;;9.40;58.00;9.60;95938.00;;;;5035119;28;20197;-84
2022/04/19 05:14:51;;;;;;;3.50;2.30;;;9.30;57.90;9.60;95940.00;;;;5034476;28;20705;-83
2022/04/19 05:17:20;;;;;;;2.47;2.27;;;9.30;57.90;9.60;95940.00;;;;5034337;28;20212;-84
2022/04/19 05:19:47;;;;;;;2.67;2.47;;;9.30;58.00;9.60;95943.00;;;;5033145;28;20228;-84
2022/04/19 05:22:14;;;;;;;2.13;1.93;;;9.30;58.10;9.60;95947.00;;;;5032710;28;20201;-83
2022/04/19 05:24:41;;;;;;;2.37;2.17;;;9.40;58.20;9.70;95947.00;;;;5032908;28;20677;-84
2022/04/19 05:27:08;;;;;;;3.60;2.37;;;9.30;58.20;9.70;95937.00;;;;5032812;28;20197;-84
2022/04/19 05:29:35;;;;;;;3.07;2.23;;;9.40;58.30;9.70;95945.00;;;;5032620;28;20702;-84
2022/04/19 05:32:02;;;;;;;2.27;2.07;;;9.40;58.30;9.80;95936.00;;;;5032782;28;20197;-83
2022/04/19 05:34:30;;;;;;;2.00;1.90;;;9.50;58.40;9.80;95947.00;;;;5032837;28;20235;-83
2022/04/19 05:36:57;;;;;;;2.33;2.13;;;9.50;58.50;9.90;95944.00;;;;5032852;28;20203;-84
2022/04/19 05:39:25;;;;;;;2.00;1.80;;;9.50;58.40;9.90;95938.00;;;;5020928;28;20205;-84
2022/04/19 05:41:52;;;;;;;5.20;2.07;;;9.60;58.50;9.90;95941.00;;;;5013674;28;20208;-84
2022/04/19 05:44:20;;;;;;;1.80;1.70;;;9.60;58.80;9.90;95943.00;;;;5013211;28;20286;-84
2022/04/19 05:46:47;;;;;;;2.40;2.20;;;9.60;58.20;10.00;95938.00;;;;5012995;28;20194;-84
2022/04/19 05:49:14;;;;;;;2.00;1.90;;;9.70;58.10;10.00;95945.00;;;;5013241;28;20202;-84
2022/04/19 05:51:43;;;;;;;2.23;2.07;;;9.70;58.10;10.00;95933.00;;;;5013831;28;20212;-84
2022/04/19 05:54:10;;;;;;;2.13;1.80;;;9.70;58.00;10.10;95947.00;;;;5013522;28;20232;-83
2022/04/19 05:56:37;;;;;;;2.00;1.80;;;9.80;58.10;10.10;95944.00;;;;5013605;28;20198;-84
2022/04/19 05:59:04;;;;;;;2.20;2.00;;;9.80;58.10;10.10;95937.00;;;;5013669;28;20193;-84
2022/04/19 06:04:51;;;;;;;2.27;1.63;;;9.80;58.00;10.20;95944.00;;;;5013295;28;20218;-83
2022/04/19 06:07:05;;;;;;;2.20;2.00;;;9.90;57.90;10.30;95940.00;;;;5012813;28;20200;-82
2022/04/19 06:09:32;;;;;;;2.03;1.83;;;10.00;58.00;10.40;95940.00;;;;5026747;28;20221;-84
2022/04/19 06:12:00;;;;;;;2.57;1.70;;;10.00;58.10;10.50;95938.00;;;;5032296;28;20221;-83
2022/04/19 06:14:27;;;;;;;2.00;1.90;;;10.10;58.20;10.60;95934.00;;;;5032272;28;20225;-83
2022/04/19 06:16:54;;;;;;;1.80;1.70;;;10.20;58.20;10.70;95942.00;;;;5032356;28;20198;-84
2022/04/19 06:19:22;;;;;;;1.90;1.53;;;10.30;58.10;10.80;95939.00;;;;5032469;28;20287;-83
2022/04/19 06:21:49;;;;;;;1.93;1.70;;;10.30;58.00;10.90;95939.00;;;;5028121;28;20197;-84
2022/04/19 06:24:17;;;;;;;3.27;1.70;;;10.50;58.10;11.00;95943.00;;;;5020357;28;20570;-84
2022/04/19 06:26:45;;;;;;;1.67;1.43;;;10.60;58.00;11.10;95943.00;;;;5031949;28;20201;-84
2022/04/19 06:29:12;;;;;;;3.23;1.60;;;10.70;58.00;11.20;95941.00;;;;5030775;28;20205;-83
2022/04/19 06:31:40;;;;;;;1.60;1.50;;;10.80;58.00;11.30;95945.00;;;;5013501;28;20198;-83
2022/04/19 06:34:08;;;;;;;1.50;1.40;;;10.90;57.90;11.40;95948.00;;;;5012271;28;20230;-83
2022/04/19 06:36:35;;;;;;;1.90;1.80;;;11.00;57.70;11.50;95952.00;;;;5012004;28;20260;-83
2022/04/19 06:39:02;;;;;;;2.30;1.70;;;11.10;57.70;11.50;95952.00;;;;5012309;28;20202;-83
2022/04/19 06:41:31;;;;;;;1.90;1.80;;;11.20;57.70;11.70;95960.00;;;;5014391;28;20710;-83
2022/04/19 06:43:59;;;;;;;2.00;1.90;;;11.20;57.50;11.70;95959.00;;;;5012179;28;20202;-82
2022/04/19 06:46:26;;;;;;;2.23;1.93;;;11.30;57.40;11.80;95957.00;;;;5012168;28;20268;-83
2022/04/19 06:48:54;;;;;;;2.03;1.47;;;11.40;57.50;11.90;95956.00;;;;5012990;28;20209;-83
2022/04/19 06:51:22;;;;;;;1.60;1.50;;;11.50;57.50;12.00;95953.00;;;;5031606;28;20562;-84
2022/04/19 06:53:50;;;;;;;2.20;1.70;;;11.60;57.50;12.10;95953.00;;;;5028723;28;20261;-84
2022/04/19 06:56:17;;;;;;;3.00;1.90;;;11.60;57.10;12.20;95955.00;;;;5016132;28;20216;-84
2022/04/19 06:58:45;;;;;;;1.73;1.63;;;11.70;57.00;12.30;95951.00;;;;5017398;28;20204;-83
2022/04/19 07:01:12;;;;;;;1.60;1.50;;;11.80;56.90;12.40;95952.00;;;;5033418;28;20304;-83
2022/04/19 07:03:39;;;;;;;4.03;3.23;;;11.90;57.00;12.50;95956.00;;;;5037179;28;20295;-84
2022/04/19 07:06:07;;;;;;;2.10;1.90;;;12.00;56.90;12.60;95956.00;;;;5035201;28;20228;-84
2022/04/19 07:08:34;;;;;;;2.00;1.90;;;12.10;56.80;12.80;95961.00;;;;5030288;28;20209;-83
2022/04/19 07:11:01;;;;;;;3.17;1.87;;;12.20;56.60;12.90;95958.00;;;;5027708;28;20240;-84
2022/04/19 07:13:29;;;;;;;1.77;1.63;;;12.30;56.40;13.00;95955.00;;;;5035229;28;20785;-84
2022/04/19 07:15:57;;;;;;;1.90;1.70;;;12.40;56.30;13.20;95959.00;;;;5028302;28;20198;-84
2022/04/19 07:18:24;;;;;;;2.07;1.87;;;12.50;56.30;13.30;95963.00;;;;5020134;28;20200;-84
2022/04/19 07:29:15;;;;;;;2.43;2.23;;;13.20;56.20;14.10;95958.00;;;;4988112;28;20190;-84
2022/04/19 07:31:45;;;;;;;1.90;1.80;;;13.40;56.10;14.30;95963.00;;;;5016799;28;20194;-84
2022/04/19 07:34:14;;;;;;;1.83;1.63;;;13.60;55.80;14.50;95960.00;;;;5031780;28;20218;-84
2022/04/19 07:36:45;;;;;;;2.10;1.90;;;13.70;55.40;14.70;95959.00;;;;5021998;28;20203;-83
2022/04/19 07:39:13;;;;;;;2.23;2.00;;;13.90;55.20;14.90;95956.00;;;;5022842;28;20659;-83
2022/04/19 07:41:46;;;;;;;2.60;2.07;;;14.10;55.20;15.10;95952.00;;;;5019756;28;20197;-83
2022/04/19 07:44:15;;;;;;;1.97;1.73;;;14.30;54.80;15.30;95954.00;;;;5031303;28;20205;-83
2022/04/19 07:46:44;;;;;;;2.20;2.00;;;14.40;54.60;15.50;95953.00;;;;5027134;28;20206;-83
2022/04/19 07:49:11;;;;;;;2.10;2.00;;;14.60;54.00;15.70;95950.00;;;;5024989;28;20204;-83
2022/04/19 07:51:38;;;;;;;2.00;1.60;;;14.80;54.00;15.80;95957.00;;;;5017300;28;20202;-83
2022/04/19 07:54:06;;;;;;;1.97;1.83;;;14.90;53.50;16.00;95958.00;;;;5016183;28;20257;-82
2022/04/19 07:56:33;;;;;;;2.37;2.17;;;15.10;53.20;16.20;95950.00;;;;5026122;28;20285;-84
2022/04/19 07:59:00;;;;;;;1.70;1.60;;;15.30;53.10;16.30;95955.00;;;;5029450;28;20186;-84
2022/04/19 08:01:27;;;;;;;1.90;1.80;;;15.40;52.90;16.50;95951.00;;;;5015478;28;20222;-84
2022/04/19 08:03:56;;;;;;;2.00;1.50;;;15.60;52.80;16.70;95951.00;;;;5030646;28;20201;-84
2022/04/19 08:06:23;;;;;;;2.53;2.00;;;15.70;52.50;16.90;95951.00;;;;5019325;28;20195;-84
2022/04/19 08:08:50;;;;;;;2.17;1.83;;;15.90;52.10;17.00;95959.00;;;;5026618;28;20667;-83
2022/04/19 08:11:17;;;;;;;1.70;1.60;;;16.10;52.10;17.20;95961.00;;;;5017343;28;20214;-82
2022/04/19 08:13:44;;;;;;;2.13;1.63;;;16.20;51.70;17.40;95962.00;;;;5032335;28;20197;-82
2022/04/19 08:16:11;;;;;;;1.40;1.30;;;16.40;51.50;17.60;95959.00;;;;5026674;28;20261;-82
2022/04/19 08:18:38;;;;;;;1.70;1.60;;;16.50;51.50;17.70;95964.00;;;;5039115;28;20201;-82
2022/04/19 08:21:06;;;;;;;1.90;1.80;;;16.70;51.40;17.80;95963.00;;;;5033435;28;20222;-81
2022/04/19 08:23:33;;;;;;;1.63;1.50;;;16.80;50.50;17.90;95962.00;;;;5030092;28;20253;-81
2022/04/19 08:26:00;;;;;;;2.23;1.37;;;16.90;50.20;17.90;95961.00;;;;5048203;28;20204;-82
2022/04/19 08:28:27;;;;;;;1.73;1.63;;;17.00;50.00;18.00;95959.00;;;;5028281;28;20185;-81
2022/04/19 08:30:54;;;;;;;1.67;1.57;;;17.10;50.00;18.00;95954.00;;;;5025961;28;20218;-82
2022/04/19 08:33:21;;;;;;;1.60;1.50;;;17.20;49.80;18.10;95962.00;;;;5030552;28;20189;-81
2022/04/19 08:35:48;;;;;;;1.80;1.70;;;17.20;49.60;18.20;95960.00;;;;5020854;28;20222;-81
2022/04/19 08:38:17;;;;;;;1.77;1.67;;;17.40;49.60;18.30;95956.00;;;;5034280;28;20682;-82
2022/04/19 08:40:44;;;;;;;2.07;1.60;;;17.40;49.50;18.30;95957.00;;;;5017068;28;20232;-81
2022/04/19 08:43:12;;;;;;;1.90;1.80;;;17.50;49.30;18.30;95959.00;;;;5016869;28;20204;-82
2022/04/19 08:45:39;;;;;;;1.70;1.60;;;17.60;48.50;18.40;95961.00;;;;5016600;28;20256;-82
2022/04/19 08:48:11;;;;;;;3.20;1.60;;;17.60;48.30;18.40;95960.00;;;;5016719;28;20688;-79
2022/04/19 08:50:39;;;;;;;1.57;1.47;;;17.60;47.90;18.40;95961.00;;;;5016484;28;20636;-81
2022/04/19 08:58:39;;;;;;;2.10;1.53;;;17.80;48.30;18.70;95953.00;;;;5016808;28;20208;-82
2022/04/19 09:01:06;;;;;;;1.50;1.40;;;17.80;48.00;18.70;95957.00;;;;5017339;28;20214;-82
2022/04/19 09:03:33;;;;;;;1.90;1.80;;;17.90;47.50;18.80;95967.00;;;;5016484;28;20198;-82
2022/04/19 09:06:01;;;;;;;1.53;1.43;;;18.00;47.50;18.90;95963.00;;;;5016008;28;20208;-81
2022/04/19 09:08:28;;;;;;;1.37;1.27;;;18.00;47.40;19.10;95972.00;;;;5021154;28;20201;-82
2022/04/19 09:11:08;;;;;;;1.60;1.17;;;18.10;47.60;19.20;95971.00;;;;5035537;28;20753;-81
2022/04/19 09:13:36;;;;;;;1.80;1.70;;;18.30;46.70;19.20;95958.00;;;;5035408;28;20243;-81
2022/04/19 09:16:08;;;;;;;1.40;1.30;;;18.30;46.70;19.20;95966.00;;;;5034991;28;20225;-81
2022/04/19 09:18:37;;;;;;;1.60;1.50;;;18.40;46.70;19.30;95961.00;;;;5035154;28;20209;-81
2022/04/19 09:21:07;;;;;;;1.43;1.33;;;18.50;46.80;19.40;95965.00;;;;5035968;28;20221;-82
2022/04/19 09:23:36;;;;;;;1.37;1.27;;;18.50;46.30;19.40;95956.00;;;;5032162;28;20205;-80
2022/04/19 09:26:08;;;;;;;1.40;1.30;;;18.60;46.10;19.40;95965.00;;;;5014131;28;20202;-83
2022/04/19 09:28:35;;;;;;;1.80;1.57;;;18.70;46.30;19.50;95962.00;;;;5014188;28;20197;-84
2022/04/19 09:31:11;;;;;;;1.33;1.23;;;18.80;46.50;19.70;95962.00;;;;5015065;28;20308;-82
2022/04/19 09:33:38;;;;;;;1.23;1.13;;;19.00;46.40;20.00;95961.00;;;;5015851;28;20576;-82
2022/04/19 09:36:07;;;;;;;1.93;1.40;;;19.20;46.70;20.20;95961.00;;;;5014387;28;20222;-85
2022/04/19 09:38:36;;;;;;;1.70;1.60;;;19.50;46.60;20.50;95961.00;;;;5013531;28;20208;-84
2022/04/19 09:41:06;;;;;;;2.23;1.40;;;19.80;46.30;20.70;95957.00;;;;5013517;28;20225;-84
2022/04/19 09:43:34;;;;;;;1.60;1.50;;;20.00;45.60;20.80;95952.00;;;;5013521;28;20715;-84
2022/04/19 09:46:04;;;;;;;1.57;1.40;;;20.30;44.40;21.00;95952.00;;;;5013676;28;20198;-83
2022/04/19 09:48:33;;;;;;;3.63;1.80;;;20.60;44.30;21.10;95954.00;;;;5014244;28;20228;-84
2022/04/19 09:51:03;;;;;;;1.63;1.53;;;20.70;44.30;21.20;95958.00;;;;5015125;28;20221;-84
2022/04/19 09:53:39;;;;;;;1.70;1.60;;;20.90;42.70;21.20;95962.00;;;;4996325;28;20234;-84
2022/04/19 09:56:11;;;;;;;1.47;1.37;;;20.90;41.40;21.10;95955.00;;;;5013706;28;20632;-83
2022/04/19 09:58:39;;;;;;;1.60;1.50;;;20.90;42.30;21.20;95960.00;;;;5015207;28;20207;-84
2022/04/19 10:01:07;;;;;;;3.80;1.70;;;20.90;42.40;21.20;95954.00;;;;5014156;28;20334;-84
2022/04/19 10:09:06;;;;;;;2.40;1.27;;;20.70;40.20;21.00;95949.00;;;;5022677;28;20204;-83
2022/04/19 10:11:35;;;;;;;1.40;1.30;;;20.70;41.30;21.00;95942.00;;;;5033165;28;20208;-83
2022/04/19 10:14:02;;;;;;;1.53;1.10;;;20.60;41.20;21.00;95937.00;;;;5032837;28;20197;-83
2022/04/19 10:16:31;;;;;;;1.40;1.30;;;20.60;41.30;21.10;95930.00;;;;5032123;28;20201;-84
2022/04/19 10:18:59;;;;;;;1.43;1.20;;;20.60;41.40;21.20;95932.00;;;;5032357;28;20243;-84
2022/04/19 10:21:34;;;;;;;1.83;0.93;;;20.60;41.30;21.20;95934.00;;;;5031920;28;20272;-82
2022/04/19 10:24:13;;;;;;;1.40;1.23;;;20.70;41.70;21.30;95943.00;;;;5031847;28;20244;-83
2022/04/19 10:26:47;;;;;;;0.90;0.90;;;20.90;40.80;21.40;95934.00;;;;5032290;28;20196;-83
2022/04/19 10:29:20;;;;;;;1.33;1.23;;;21.10;41.60;21.60;95930.00;;;;5031810;28;20708;-83
2022/04/19 10:31:58;;;;;;;0.90;0.90;;;21.30;41.40;21.80;95935.00;;;;5032379;28;20208;-84
2022/04/19 10:34:27;;;;;;;0.90;0.90;;;21.40;40.40;21.90;95937.00;;;;5032896;28;20205;-83
2022/04/19 10:36:57;;;;;;;1.73;1.00;;;21.60;40.50;22.00;95926.00;;;;5032728;28;20292;-83
2022/04/19 10:39:32;;;;;;;1.17;1.10;;;21.70;40.40;22.20;95923.00;;;;5020293;28;20703;-83
2022/04/19 10:42:02;;;;;;;0.70;0.70;;;21.90;40.00;22.30;95924.00;;;;5012611;28;20236;-83
2022/04/19 10:44:49;;;;;;;1.17;1.00;;;21.90;39.50;22.30;95921.00;;;;5012536;28;20198;-83
2022/04/19 10:47:18;;;;;;;1.00;1.00;;;22.00;38.60;22.20;95918.00;;;;5012577;28;20272;-83
2022/04/19 10:50:07;;;;;;;1.17;0.97;;;22.00;38.60;22.20;95921.00;;;;5012012;28;20639;-83
2022/04/19 10:52:48;;;;;;;1.30;1.00;;;22.00;39.10;22.20;95919.00;;;;5012763;28;20198;-83
2022/04/19 10:55:31;;;;;;;1.50;1.40;;;22.00;37.60;22.10;95911.00;;;;5012178;28;20261;-80
2022/04/19 10:58:17;;;;;;;1.30;1.20;;;21.90;37.60;22.10;95904.00;;;;5013378;28;20201;-80
2022/04/19 11:00:56;;;;;;;1.03;1.03;;;21.90;38.20;22.10;95907.00;;;;5012550;28;20218;-80
2022/04/19 11:03:50;;;;;;;1.00;1.00;;;21.80;38.20;22.00;95911.00;;;;5013185;28;20262;-80
2022/04/19 11:06:40;;;;;;;1.40;1.30;;;21.80;38.00;22.00;95907.00;;;;5013728;28;20202;-81
2022/04/19 11:09:19;;;;;;;1.20;1.10;;;21.70;37.60;22.00;95893.00;;;;5023602;28;20271;-81
2022/04/19 11:11:52;;;;;;;1.00;1.00;;;21.60;38.10;22.00;95890.00;;;;5034366;28;20189;-80
2022/04/19 11:14:46;;;;;;;1.13;1.03;;;21.60;37.50;21.90;95895.00;;;;5035691;28;20215;-81
2022/04/19 11:17:40;;;;;;;1.40;1.30;;;21.50;37.70;21.90;95893.00;;;;5039575;28;20233;-82
2022/04/19 11:20:15;;;;;;;1.13;1.07;;;21.40;38.00;21.90;95891.00;;;;5035918;28;20281;-79
2022/04/19 11:22:52;;;;;;;1.23;1.13;;;21.40;38.70;21.90;95887.00;;;;5032583;28;20235;-79
2022/04/19 11:25:39;;;;;;;1.03;0.90;;;21.40;38.70;21.90;95878.00;;;;5015964;28;20662;-82
2022/04/19 11:28:24;;;;;;;1.80;0.90;;;21.30;37.90;21.80;95881.00;;;;5021536;28;20201;-80
2022/04/19 11:31:14;;;;;;;2.13;1.10;;;21.30;37.80;21.70;95880.00;;;;5023740;28;20217;-82
2022/04/19 11:33:41;;;;;;;0.90;0.90;;;21.20;36.90;21.60;95877.00;;;;5031626;28;20237;-80
2022/04/19 11:36:11;;;;;;;1.23;1.00;;;21.10;37.60;21.50;95861.00;;;;5034102;28;20222;-80
2022/04/19 11:38:45;;;;;;;1.13;0.90;;;21.00;37.70;21.30;95862.00;;;;5032033;28;20234;-80
2022/04/19 11:46:57;;;;;;;1.30;1.17;;;20.70;37.70;21.10;95855.00;;;;5015309;28;20202;-80